Time;durP1;ratioP1;P1;durP2;ratioP2;P2;SDS_P1;SDS_P2;PMS_P1;PMS_P2;Temp;Humidity;BMP_temperature;BMP_pressure;BME280_temperature;BME280_humidity;BME280_pressure;Samples;Min_cycle;Max_cycle;Signal;HPM_P1;HPM_P2
2022/04/05 00:00:32;;;;;;;17.88;2.63;;;5.90;99.90;;;;;;5059332;28;20546;-79
2022/04/05 00:03:00;;;;;;;12.98;2.90;;;5.90;99.90;;;;;;5059934;28;20658;-78
2022/04/05 00:05:28;;;;;;;17.63;2.63;;;5.90;99.90;;;;;;5061048;28;20219;-79
2022/04/05 00:07:56;;;;;;;8.13;2.35;;;6.00;99.90;;;;;;5061204;28;20668;-78
2022/04/05 00:10:24;;;;;;;9.93;2.55;;;6.00;99.90;;;;;;5060739;28;20235;-79
2022/04/05 00:12:51;;;;;;;11.68;3.65;;;6.00;99.90;;;;;;5061958;28;20284;-77
2022/04/05 00:15:21;;;;;;;18.42;3.08;;;6.00;99.90;;;;;;5063858;28;20197;-78
2022/04/05 00:17:49;;;;;;;12.15;3.70;;;6.00;99.90;;;;;;5064821;28;20207;-75
2022/04/05 00:20:17;;;;;;;9.25;2.63;;;5.90;99.90;;;;;;5062958;28;20738;-76
2022/04/05 00:22:45;;;;;;;14.73;3.05;;;5.80;99.90;;;;;;5059256;28;20797;-75
2022/04/05 00:25:12;;;;;;;14.25;2.30;;;5.70;99.90;;;;;;5060513;28;20209;-77
2022/04/05 00:27:40;;;;;;;11.90;2.50;;;5.80;99.90;;;;;;5060323;28;20249;-77
2022/04/05 00:30:11;;;;;;;12.43;2.50;;;5.80;99.90;;;;;;5060969;28;20790;-75
2022/04/05 00:32:40;;;;;;;12.88;2.90;;;5.90;99.90;;;;;;5060714;28;20205;-75
2022/04/05 00:35:09;;;;;;;13.32;4.18;;;6.00;99.90;;;;;;5059700;28;20216;-78
2022/04/05 00:37:54;;;;;;;6.30;2.45;;;6.00;99.90;;;;;;5061274;28;20337;-76
2022/04/05 00:40:22;;;;;;;11.05;2.30;;;6.00;99.90;;;;;;5061315;28;20231;-75
2022/04/05 00:42:50;;;;;;;17.88;2.70;;;5.90;99.90;;;;;;5060986;28;20858;-78
2022/04/05 00:45:20;;;;;;;16.58;2.78;;;5.90;99.90;;;;;;5061887;28;20212;-75
2022/04/05 00:47:51;;;;;;;12.90;3.45;;;5.80;99.90;;;;;;5062254;28;20258;-76
2022/04/05 00:50:21;;;;;;;11.60;2.88;;;5.70;99.90;;;;;;5062025;28;20221;-77
2022/04/05 00:52:49;;;;;;;13.02;3.35;;;5.70;99.90;;;;;;5062194;28;20478;-77
2022/04/05 00:55:20;;;;;;;14.20;2.80;;;5.70;99.90;;;;;;5063990;28;20197;-76
2022/04/05 00:57:50;;;;;;;6.22;2.20;;;5.80;99.90;;;;;;5062019;28;20304;-77
2022/04/05 01:00:18;;;;;;;6.53;1.92;;;5.80;99.90;;;;;;5062252;28;20502;-77
2022/04/05 01:02:48;;;;;;;5.35;1.35;;;5.80;99.90;;;;;;5062290;28;20228;-76
2022/04/05 01:05:18;;;;;;;6.57;2.08;;;5.80;99.90;;;;;;5061189;28;20282;-77
2022/04/05 01:07:47;;;;;;;9.52;2.90;;;5.70;99.90;;;;;;5060521;28;20685;-77
2022/04/05 01:10:15;;;;;;;13.15;2.50;;;5.80;99.90;;;;;;5060286;28;20252;-77
2022/04/05 01:12:43;;;;;;;10.70;1.80;;;5.80;99.90;;;;;;5060053;28;20215;-77
2022/04/05 01:15:28;;;;;;;12.13;2.58;;;5.80;99.90;;;;;;5060236;28;20507;-76
2022/04/05 01:18:14;;;;;;;6.63;2.10;;;5.80;99.90;;;;;;5059144;28;20604;-76
2022/04/05 01:20:56;;;;;;;9.43;1.80;;;5.90;99.90;;;;;;5059005;28;20511;-77
2022/04/05 01:23:24;;;;;;;7.47;3.00;;;5.80;99.90;;;;;;5059198;28;20474;-76
2022/04/05 01:25:55;;;;;;;6.75;1.80;;;5.90;99.90;;;;;;5058994;28;20223;-76
2022/04/05 01:28:22;;;;;;;12.88;2.60;;;5.90;99.90;;;;;;5059231;28;20442;-75
2022/04/05 01:30:50;;;;;;;12.32;3.15;;;6.00;99.90;;;;;;5060332;28;20231;-76
2022/04/05 01:33:19;;;;;;;15.07;2.58;;;6.00;99.90;;;;;;5063218;28;20292;-80
2022/04/05 01:35:47;;;;;;;9.45;2.83;;;6.00;99.90;;;;;;5060743;28;20448;-79
2022/04/05 01:38:15;;;;;;;13.02;1.92;;;6.10;99.90;;;;;;5059875;28;20255;-78
2022/04/05 01:40:43;;;;;;;11.23;2.60;;;6.10;99.90;;;;;;5059310;28;20435;-79
2022/04/05 01:43:13;;;;;;;12.63;2.05;;;6.00;99.90;;;;;;5059822;28;20208;-78
2022/04/05 01:45:44;;;;;;;10.50;1.95;;;6.10;99.90;;;;;;5058886;28;20652;-76
2022/04/05 01:48:14;;;;;;;9.93;2.70;;;6.10;99.90;;;;;;5059012;28;20374;-77
2022/04/05 01:50:43;;;;;;;14.20;2.20;;;6.00;99.90;;;;;;5063033;28;20648;-77
2022/04/05 01:53:12;;;;;;;5.25;1.40;;;5.80;99.90;;;;;;5058414;28;20213;-77
2022/04/05 01:55:39;;;;;;;12.82;2.20;;;5.80;99.90;;;;;;5058871;28;20678;-76
2022/04/05 01:58:07;;;;;;;9.27;1.95;;;5.70;99.90;;;;;;5059140;28;20205;-76
2022/04/05 02:00:36;;;;;;;9.88;1.70;;;5.70;99.90;;;;;;5059380;28;20374;-78
2022/04/05 02:03:05;;;;;;;5.40;1.30;;;5.80;99.90;;;;;;5058722;28;20212;-76
2022/04/05 02:05:32;;;;;;;8.45;2.13;;;5.70;99.90;;;;;;5060639;28;20228;-77
2022/04/05 02:08:00;;;;;;;3.55;1.25;;;5.70;99.90;;;;;;5061729;28;20611;-77
2022/04/05 02:10:28;;;;;;;8.50;1.60;;;5.80;99.90;;;;;;5062518;28;20213;-76
2022/04/05 02:12:56;;;;;;;6.03;1.75;;;5.90;99.90;;;;;;5062043;28;20226;-77
2022/04/05 02:15:24;;;;;;;8.20;2.17;;;5.90;99.90;;;;;;5063052;28;20204;-77
2022/04/05 02:17:55;;;;;;;16.95;2.10;;;5.90;99.90;;;;;;5062067;28;20205;-76
2022/04/05 02:20:23;;;;;;;11.38;1.50;;;5.90;99.90;;;;;;5063157;28;20231;-78
2022/04/05 02:22:51;;;;;;;4.30;1.80;;;5.90;99.90;;;;;;5062519;28;20460;-76
2022/04/05 02:25:19;;;;;;;6.95;1.50;;;5.90;99.90;;;;;;5079870;28;20238;-76
2022/04/05 02:27:47;;;;;;;5.28;1.48;;;5.80;99.90;;;;;;5081511;28;20200;-76
2022/04/05 02:30:16;;;;;;;3.83;1.00;;;5.60;99.90;;;;;;5082227;28;20228;-76
2022/04/05 02:32:44;;;;;;;3.28;1.30;;;5.40;99.90;;;;;;5081749;28;20521;-77
2022/04/05 02:35:13;;;;;;;5.05;1.17;;;5.10;99.90;;;;;;5081867;28;20353;-76
2022/04/05 02:37:41;;;;;;;6.70;1.80;;;4.90;99.90;;;;;;5082727;28;20234;-76
2022/04/05 02:40:09;;;;;;;2.60;1.08;;;4.60;99.90;;;;;;5083423;28;20581;-75
2022/04/05 02:42:39;;;;;;;2.67;0.90;;;4.50;99.90;;;;;;5083102;28;20417;-76
2022/04/05 02:45:08;;;;;;;3.70;1.20;;;4.40;99.90;;;;;;5083427;28;20303;-76
2022/04/05 02:47:36;;;;;;;6.38;1.30;;;4.30;99.90;;;;;;5081899;28;20201;-76
2022/04/05 02:50:05;;;;;;;5.10;0.98;;;4.20;99.90;;;;;;5082512;28;20224;-75
2022/04/05 02:52:35;;;;;;;7.57;1.23;;;4.20;99.90;;;;;;5082372;28;20667;-75
2022/04/05 02:55:04;;;;;;;4.43;1.52;;;4.20;99.90;;;;;;5081429;28;20192;-77
2022/04/05 02:57:36;;;;;;;4.15;0.82;;;4.20;99.90;;;;;;5081106;28;20655;-75
2022/04/05 03:00:07;;;;;;;4.90;1.70;;;4.20;99.90;;;;;;5082392;28;20216;-75
2022/04/05 03:02:35;;;;;;;11.15;2.00;;;4.20;99.90;;;;;;5084837;28;20204;-75
2022/04/05 03:05:08;;;;;;;8.05;1.98;;;4.20;99.90;;;;;;5085436;28;20251;-74
2022/04/05 03:07:38;;;;;;;10.85;2.40;;;4.20;99.90;;;;;;5083411;28;20207;-77
2022/04/05 03:10:08;;;;;;;13.02;1.73;;;4.20;99.90;;;;;;5083678;28;20222;-74
2022/04/05 03:12:37;;;;;;;10.45;1.55;;;4.20;99.90;;;;;;5083752;28;20395;-79
2022/04/05 03:15:07;;;;;;;11.07;2.05;;;4.20;99.90;;;;;;5086980;28;20203;-71
2022/04/05 03:17:35;;;;;;;4.97;1.20;;;4.10;99.90;;;;;;5077887;28;20292;-81
2022/04/05 03:20:04;;;;;;;10.23;1.88;;;4.20;99.90;;;;;;5084579;28;20216;-74
2022/04/05 03:22:32;;;;;;;5.25;1.48;;;4.10;99.90;;;;;;5093342;28;20325;-75
2022/04/05 03:25:01;;;;;;;14.38;1.83;;;4.10;99.90;;;;;;5089668;28;20211;-76
2022/04/05 03:27:29;;;;;;;3.70;1.90;;;4.10;99.90;;;;;;5079921;28;20243;-75
2022/04/05 03:29:57;;;;;;;8.93;2.00;;;4.10;99.90;;;;;;5061840;28;20209;-74
2022/04/05 03:32:25;;;;;;;5.13;1.55;;;4.10;99.90;;;;;;5079196;28;20196;-74
2022/04/05 03:34:53;;;;;;;5.70;1.40;;;4.10;99.90;;;;;;5082358;28;20196;-74
2022/04/05 03:37:21;;;;;;;6.50;1.60;;;4.20;99.90;;;;;;5064931;28;20212;-77
2022/04/05 03:39:49;;;;;;;7.85;1.55;;;4.20;99.90;;;;;;5064297;28;20396;-76
2022/04/05 03:42:18;;;;;;;9.88;1.77;;;4.20;99.90;;;;;;5063950;28;20225;-74
2022/04/05 03:44:46;;;;;;;6.95;1.63;;;4.20;99.90;;;;;;5080575;28;20217;-75
2022/04/05 03:47:14;;;;;;;8.70;1.60;;;4.10;99.90;;;;;;5074877;28;20303;-78
2022/04/05 03:49:42;;;;;;;6.50;1.30;;;4.20;99.90;;;;;;5066506;28;20201;-74
2022/04/05 03:52:10;;;;;;;9.48;1.92;;;4.20;99.90;;;;;;5072486;28;20205;-74
2022/04/05 03:54:38;;;;;;;11.23;1.75;;;4.20;99.90;;;;;;5060283;28;20193;-73
2022/04/05 03:57:06;;;;;;;6.20;1.98;;;4.20;99.90;;;;;;5061358;28;20475;-73
2022/04/05 03:59:36;;;;;;;10.63;1.60;;;4.10;99.90;;;;;;5063750;28;20277;-78
2022/04/05 04:02:04;;;;;;;7.47;1.60;;;4.10;99.90;;;;;;5085962;28;20216;-73
2022/04/05 04:04:32;;;;;;;1.33;1.20;;;4.10;99.90;;;;;;5067584;28;20668;-74
2022/04/05 04:07:02;;;;;;;7.82;1.63;;;4.10;99.90;;;;;;5068973;28;20449;-76
2022/04/05 04:09:30;;;;;;;7.15;2.10;;;4.00;99.90;;;;;;5082265;28;20230;-77
2022/04/05 04:11:58;;;;;;;8.52;2.08;;;4.00;99.90;;;;;;5082252;28;20465;-78
2022/04/05 04:14:26;;;;;;;5.70;1.50;;;4.00;99.90;;;;;;5080787;28;20195;-74
2022/04/05 04:16:56;;;;;;;9.27;2.53;;;4.00;99.90;;;;;;5081481;28;20291;-76
2022/04/05 04:19:24;;;;;;;10.35;1.73;;;4.00;99.90;;;;;;5079115;28;20442;-77
2022/04/05 04:21:51;;;;;;;4.57;1.55;;;3.90;99.90;;;;;;5064601;28;20221;-77
2022/04/05 04:24:20;;;;;;;6.10;1.60;;;3.90;99.90;;;;;;5062065;28;20205;-76
2022/04/05 04:26:48;;;;;;;5.25;1.48;;;3.90;99.90;;;;;;5061243;28;20323;-75
2022/04/05 04:29:16;;;;;;;9.32;1.70;;;3.90;99.90;;;;;;5069075;28;20192;-75
2022/04/05 04:31:44;;;;;;;11.18;2.35;;;3.90;99.90;;;;;;5072629;28;20309;-73
2022/04/05 04:34:13;;;;;;;6.93;1.05;;;3.90;99.90;;;;;;5074984;28;20274;-72
2022/04/05 04:36:41;;;;;;;7.40;1.90;;;3.90;99.90;;;;;;5070682;28;20196;-73
2022/04/05 04:39:09;;;;;;;8.45;1.95;;;3.90;99.90;;;;;;5067180;28;20895;-75
2022/04/05 04:41:37;;;;;;;2.47;1.65;;;3.90;99.90;;;;;;5076768;28;20315;-72
2022/04/05 04:44:06;;;;;;;8.68;2.05;;;3.90;99.90;;;;;;5063646;28;20868;-73
2022/04/05 04:46:34;;;;;;;7.88;1.92;;;3.90;99.90;;;;;;5081310;28;20297;-73
2022/04/05 04:49:02;;;;;;;2.95;1.50;;;3.90;99.90;;;;;;5081472;28;20196;-73
2022/04/05 04:51:31;;;;;;;9.07;2.42;;;4.00;99.90;;;;;;5080405;28;20236;-71
2022/04/05 04:53:59;;;;;;;3.72;1.52;;;4.00;99.90;;;;;;5072470;28;20704;-76
2022/04/05 04:56:27;;;;;;;4.22;1.50;;;4.00;99.90;;;;;;5059259;28;20661;-73
2022/04/05 04:58:56;;;;;;;14.68;1.88;;;3.90;99.90;;;;;;5059388;28;20205;-73
2022/04/05 05:01:24;;;;;;;9.85;2.28;;;3.90;99.90;;;;;;5058746;28;20224;-74
2022/04/05 05:03:52;;;;;;;7.55;1.85;;;4.00;99.90;;;;;;5058128;28;20281;-73
2022/04/05 05:06:20;;;;;;;3.90;1.33;;;4.00;99.90;;;;;;5073076;28;20216;-73
2022/04/05 05:08:50;;;;;;;9.23;1.70;;;4.00;99.90;;;;;;5063407;28;20211;-72
2022/04/05 05:11:17;;;;;;;6.68;1.40;;;4.10;99.90;;;;;;5074649;28;20217;-73
2022/04/05 05:13:48;;;;;;;15.57;3.17;;;4.20;99.90;;;;;;5058434;28;20704;-74
2022/04/05 05:16:16;;;;;;;7.97;2.40;;;4.30;99.90;;;;;;5072979;28;20202;-72
2022/04/05 05:18:44;;;;;;;10.57;1.42;;;4.50;99.90;;;;;;5067617;28;20377;-76
2022/04/05 05:21:12;;;;;;;12.20;1.98;;;4.60;99.90;;;;;;5081303;28;20226;-74
2022/04/05 05:23:41;;;;;;;7.15;1.45;;;4.80;99.90;;;;;;5071074;28;20209;-75
2022/04/05 05:26:10;;;;;;;11.82;2.58;;;4.90;99.90;;;;;;5059008;28;20278;-74
2022/04/05 05:28:38;;;;;;;3.60;1.30;;;5.00;99.90;;;;;;5066304;28;20209;-74
2022/04/05 05:31:06;;;;;;;12.77;2.13;;;5.10;99.90;;;;;;5071189;28;20308;-72
2022/04/05 05:33:34;;;;;;;4.93;2.15;;;5.00;99.90;;;;;;5060395;28;20303;-71
2022/04/05 05:36:02;;;;;;;10.07;2.97;;;4.90;99.90;;;;;;5059169;28;20784;-72
2022/04/05 05:38:30;;;;;;;12.68;2.03;;;4.80;99.90;;;;;;5074874;28;20241;-72
2022/04/05 05:40:58;;;;;;;2.95;1.05;;;4.80;99.90;;;;;;5070634;28;20223;-71
2022/04/05 05:43:33;;;;;;;5.18;1.40;;;4.70;99.90;;;;;;5073188;28;20208;-71
2022/04/05 05:46:03;;;;;;;4.60;1.95;;;4.60;99.90;;;;;;5073251;28;20229;-73
2022/04/05 05:48:31;;;;;;;9.52;1.73;;;4.60;99.90;;;;;;5063336;28;20333;-73
2022/04/05 05:50:59;;;;;;;2.85;1.15;;;4.60;99.90;;;;;;5064078;28;20231;-73
2022/04/05 05:53:28;;;;;;;10.00;2.42;;;4.60;99.90;;;;;;5067629;28;20641;-72
2022/04/05 05:55:56;;;;;;;7.05;1.63;;;4.50;99.90;;;;;;5063285;28;20211;-72
2022/04/05 05:58:24;;;;;;;4.18;1.55;;;4.60;99.90;;;;;;5068183;28;20439;-72
2022/04/05 06:00:54;;;;;;;5.65;1.42;;;4.60;99.90;;;;;;5067674;28;20234;-72
2022/04/05 06:03:22;;;;;;;7.78;2.45;;;4.60;99.90;;;;;;5065753;28;20761;-72
2022/04/05 06:05:50;;;;;;;4.43;1.65;;;4.60;99.90;;;;;;5071905;28;20231;-73
2022/04/05 06:08:19;;;;;;;8.30;2.20;;;4.60;99.90;;;;;;5076591;28;20222;-74
2022/04/05 06:10:47;;;;;;;8.07;1.95;;;4.60;99.90;;;;;;5083248;28;20231;-76
2022/04/05 06:13:15;;;;;;;5.20;1.50;;;4.60;99.90;;;;;;5073333;28;20631;-71
2022/04/05 06:15:43;;;;;;;7.72;1.80;;;4.70;99.90;;;;;;5062239;28;20301;-74
2022/04/05 06:18:12;;;;;;;13.70;1.65;;;4.70;99.90;;;;;;5079192;28;20294;-73
2022/04/05 06:20:40;;;;;;;9.35;1.75;;;4.80;99.90;;;;;;5083163;28;20289;-72
2022/04/05 06:23:08;;;;;;;8.32;1.70;;;4.80;99.90;;;;;;5084069;28;20464;-76
2022/04/05 06:25:38;;;;;;;7.13;1.70;;;4.80;99.90;;;;;;5075535;28;20246;-73
2022/04/05 06:28:08;;;;;;;8.10;1.17;;;4.90;99.90;;;;;;5062715;28;20704;-72
2022/04/05 06:30:38;;;;;;;7.72;1.75;;;5.10;99.90;;;;;;5063984;28;20228;-73
2022/04/05 06:33:08;;;;;;;6.90;2.10;;;5.20;99.90;;;;;;5065194;28;20212;-72
2022/04/05 06:35:39;;;;;;;4.32;1.40;;;5.30;99.90;;;;;;5064368;28;20820;-73
2022/04/05 06:38:07;;;;;;;4.90;2.20;;;5.50;99.90;;;;;;5064967;28;20237;-73
2022/04/05 06:40:35;;;;;;;3.28;1.52;;;5.70;99.90;;;;;;5064101;28;20278;-71
2022/04/05 06:43:04;;;;;;;8.70;2.13;;;5.90;99.90;;;;;;5063249;28;20205;-72
2022/04/05 06:45:32;;;;;;;5.25;2.13;;;6.00;99.90;;;;;;5072143;28;20297;-73
2022/04/05 06:48:00;;;;;;;7.15;2.72;;;6.00;99.90;;;;;;5073226;28;20217;-73
2022/04/05 06:50:31;;;;;;;5.40;2.53;;;6.00;99.90;;;;;;5068406;28;20229;-73
2022/04/05 06:53:06;;;;;;;11.18;2.22;;;6.10;99.90;;;;;;5065349;28;20462;-74
2022/04/05 06:55:35;;;;;;;6.93;1.77;;;6.30;99.90;;;;;;5064021;28;20209;-72
2022/04/05 06:58:03;;;;;;;4.22;1.73;;;6.50;99.90;;;;;;5063833;28;20448;-72
2022/04/05 07:00:33;;;;;;;10.70;1.85;;;6.60;99.90;;;;;;5064108;28;20224;-73
2022/04/05 07:03:03;;;;;;;12.85;1.80;;;6.70;99.90;;;;;;5063064;28;20590;-73
2022/04/05 07:05:32;;;;;;;5.32;1.63;;;6.90;99.90;;;;;;5063187;28;20270;-71
2022/04/05 07:08:03;;;;;;;2.65;1.30;;;6.90;99.90;;;;;;5063575;28;20229;-72
2022/04/05 07:10:32;;;;;;;5.78;1.10;;;7.00;99.90;;;;;;5062692;28;20236;-72
2022/04/05 07:13:00;;;;;;;3.78;1.83;;;7.00;99.90;;;;;;5062418;28;20265;-72
2022/04/05 07:15:28;;;;;;;3.63;1.77;;;7.00;99.90;;;;;;5062383;28;20240;-71
2022/04/05 07:17:56;;;;;;;8.68;2.20;;;7.10;99.90;;;;;;5062907;28;20216;-73
2022/04/05 07:20:34;;;;;;;4.22;2.03;;;7.20;99.90;;;;;;5061697;28;20553;-73
2022/04/05 07:23:04;;;;;;;7.45;1.65;;;7.20;99.90;;;;;;5064176;28;20208;-78
2022/04/05 07:25:34;;;;;;;6.30;1.52;;;7.10;99.90;;;;;;5064070;28;20216;-77
2022/04/05 07:28:03;;;;;;;3.60;0.90;;;7.00;99.90;;;;;;5076631;28;20200;-74
2022/04/05 07:30:31;;;;;;;6.90;1.77;;;7.00;99.90;;;;;;5077885;28;20402;-73
2022/04/05 07:32:59;;;;;;;3.47;1.25;;;7.00;99.90;;;;;;5069514;28;20201;-75
2022/04/05 07:35:27;;;;;;;4.70;1.38;;;7.00;99.90;;;;;;5064683;28;20209;-76
2022/04/05 07:37:55;;;;;;;4.80;1.00;;;6.90;99.90;;;;;;5063852;28;20283;-74
2022/04/05 07:40:27;;;;;;;2.75;1.45;;;7.00;99.90;;;;;;5061710;28;20703;-73
2022/04/05 07:42:55;;;;;;;8.25;1.65;;;7.00;99.90;;;;;;5062481;28;20209;-73
2022/04/05 07:45:30;;;;;;;4.18;1.08;;;7.00;99.90;;;;;;5062712;28;20291;-73
2022/04/05 07:48:00;;;;;;;9.40;1.52;;;7.00;99.90;;;;;;5061638;28;20219;-74
2022/04/05 07:50:28;;;;;;;8.88;1.33;;;7.00;99.90;;;;;;5061190;28;20232;-74
2022/04/05 07:52:56;;;;;;;6.28;1.27;;;7.00;99.90;;;;;;5062195;28;20208;-74
2022/04/05 07:55:25;;;;;;;7.63;2.25;;;7.00;99.90;;;;;;5077820;28;20197;-75
2022/04/05 07:57:53;;;;;;;3.03;1.40;;;7.00;99.90;;;;;;5082232;28;20223;-73
2022/04/05 08:00:23;;;;;;;3.67;1.23;;;7.10;99.90;;;;;;5081853;28;20737;-76
2022/04/05 08:02:51;;;;;;;6.10;1.17;;;7.10;99.90;;;;;;5059777;28;20213;-71
2022/04/05 08:05:19;;;;;;;4.00;1.00;;;7.10;99.90;;;;;;5064772;28;20193;-71
2022/04/05 08:07:47;;;;;;;2.33;0.80;;;7.00;99.90;;;;;;5070897;28;20217;-71
2022/04/05 08:10:16;;;;;;;1.80;0.82;;;7.10;99.90;;;;;;5069126;28;20212;-71
2022/04/05 08:12:48;;;;;;;9.57;1.75;;;7.30;99.90;;;;;;5061847;28;20205;-75
2022/04/05 08:15:18;;;;;;;7.03;1.75;;;7.60;99.90;;;;;;5062435;28;20267;-76
2022/04/05 08:17:47;;;;;;;5.35;1.35;;;7.80;99.90;;;;;;5065456;28;20700;-76
2022/04/05 08:20:16;;;;;;;5.85;1.90;;;7.80;99.90;;;;;;5061604;28;20228;-74
2022/04/05 08:22:45;;;;;;;6.22;1.33;;;7.90;99.90;;;;;;5063292;28;20283;-74
2022/04/05 08:25:15;;;;;;;5.32;1.30;;;7.90;99.90;;;;;;5066670;28;20196;-74
2022/04/05 08:27:45;;;;;;;9.02;1.88;;;7.80;99.90;;;;;;5068005;28;20216;-74
2022/04/05 08:30:17;;;;;;;4.35;1.25;;;7.60;99.90;;;;;;5072090;28;20299;-72
2022/04/05 08:32:47;;;;;;;8.95;2.20;;;7.50;99.90;;;;;;5069134;28;20806;-80
2022/04/05 08:35:17;;;;;;;3.55;1.20;;;7.40;99.90;;;;;;5071631;28;20214;-80
2022/04/05 08:37:46;;;;;;;3.17;1.45;;;7.50;99.90;;;;;;5071748;28;20197;-79
2022/04/05 08:40:15;;;;;;;4.45;2.28;;;7.60;99.90;;;;;;5065753;28;20735;-78
2022/04/05 08:42:47;;;;;;;4.85;1.60;;;7.70;99.90;;;;;;5064587;28;20220;-73
2022/04/05 08:45:18;;;;;;;5.80;1.42;;;7.80;99.90;;;;;;5063953;28;20201;-72
2022/04/05 08:47:47;;;;;;;3.65;1.00;;;7.80;99.90;;;;;;5065209;28;20473;-76
2022/04/05 08:50:16;;;;;;;5.22;1.52;;;7.80;99.90;;;;;;5068871;28;20224;-74
2022/04/05 08:52:45;;;;;;;6.40;1.40;;;7.60;99.90;;;;;;5064476;28;20507;-75
2022/04/05 08:55:14;;;;;;;4.22;1.40;;;7.60;99.90;;;;;;5065301;28;20597;-75
2022/04/05 08:57:42;;;;;;;1.27;0.95;;;7.40;99.90;;;;;;5063772;28;20570;-74
2022/04/05 09:00:14;;;;;;;3.05;1.20;;;6.90;99.90;;;;;;5070845;28;20223;-75
2022/04/05 09:02:54;;;;;;;1.42;0.70;;;6.40;99.90;;;;;;5078242;28;20205;-75
2022/04/05 09:05:33;;;;;;;6.93;1.40;;;6.20;99.90;;;;;;5068306;28;20201;-72
2022/04/05 09:08:19;;;;;;;1.80;0.90;;;6.20;99.90;;;;;;5066007;28;20482;-75
2022/04/05 09:10:49;;;;;;;4.30;1.30;;;6.10;99.90;;;;;;5075109;28;20220;-74
2022/04/05 09:13:22;;;;;;;1.25;0.85;;;6.10;99.90;;;;;;5095349;28;20200;-74
2022/04/05 09:15:54;;;;;;;4.50;1.30;;;6.20;99.90;;;;;;5082200;28;20301;-73
2022/04/05 09:18:44;;;;;;;3.15;1.55;;;6.30;99.90;;;;;;5073154;28;20192;-72
2022/04/05 09:21:14;;;;;;;1.25;1.13;;;6.50;99.90;;;;;;5060643;28;20229;-73
2022/04/05 09:23:44;;;;;;;3.70;1.92;;;6.70;99.90;;;;;;5076419;28;20276;-77
2022/04/05 09:26:14;;;;;;;6.18;1.15;;;6.70;99.90;;;;;;5072746;28;20237;-73
2022/04/05 09:28:45;;;;;;;3.40;1.20;;;6.80;99.90;;;;;;5075099;28;20224;-70
2022/04/05 09:31:17;;;;;;;2.35;1.23;;;7.10;99.90;;;;;;5084098;28;20590;-68
2022/04/05 09:34:04;;;;;;;4.05;1.90;;;7.30;99.90;;;;;;5083975;28;20219;-71
2022/04/05 09:36:38;;;;;;;5.05;0.95;;;7.40;99.90;;;;;;5078649;28;20192;-71
2022/04/05 09:39:16;;;;;;;2.53;1.33;;;7.50;99.90;;;;;;5067881;28;20208;-70
2022/04/05 09:41:47;;;;;;;6.47;2.45;;;7.50;99.90;;;;;;5076967;28;20219;-72
2022/04/05 09:44:26;;;;;;;4.32;0.90;;;7.30;99.90;;;;;;5066942;28;20208;-71
2022/04/05 09:47:07;;;;;;;2.88;1.05;;;7.10;99.90;;;;;;5073304;28;20201;-73
2022/04/05 09:49:40;;;;;;;1.20;1.00;;;6.90;99.90;;;;;;5075174;28;20469;-72
2022/04/05 09:52:23;;;;;;;2.70;0.70;;;6.90;99.90;;;;;;5074489;28;20307;-72
2022/04/05 09:54:51;;;;;;;3.47;1.00;;;6.70;99.90;;;;;;5064441;28;20347;-72
2022/04/05 09:57:29;;;;;;;4.57;1.40;;;6.70;99.90;;;;;;5065004;28;20477;-71
2022/04/05 10:00:10;;;;;;;4.13;1.15;;;6.70;99.90;;;;;;5063931;28;20341;-71
2022/04/05 10:03:11;;;;;;;2.03;1.20;;;6.60;99.90;;;;;;5070149;28;20232;-72
2022/04/05 10:05:40;;;;;;;3.47;1.63;;;6.70;99.90;;;;;;5070193;28;20201;-71
2022/04/05 10:08:08;;;;;;;5.63;1.50;;;6.80;99.90;;;;;;5067825;28;20247;-71
2022/04/05 10:10:36;;;;;;;7.05;1.58;;;6.90;99.90;;;;;;5084559;28;20616;-70
2022/04/05 10:13:04;;;;;;;2.97;1.50;;;7.00;99.90;;;;;;5072719;28;20285;-70
2022/04/05 10:15:33;;;;;;;2.50;1.40;;;7.10;99.90;;;;;;5079776;28;20655;-70
2022/04/05 10:18:02;;;;;;;8.85;2.72;;;7.10;99.90;;;;;;5081151;28;20648;-72
2022/04/05 10:20:34;;;;;;;4.32;1.42;;;7.10;99.90;;;;;;5083562;28;20239;-71
2022/04/05 10:23:03;;;;;;;6.70;1.35;;;7.20;99.90;;;;;;5083127;28;20675;-71
2022/04/05 10:25:32;;;;;;;9.45;2.65;;;7.20;99.90;;;;;;5066218;28;20695;-72
2022/04/05 10:28:02;;;;;;;3.58;1.60;;;7.30;99.90;;;;;;5063950;28;20215;-71
2022/04/05 10:30:38;;;;;;;9.02;1.48;;;7.50;99.90;;;;;;5062660;28;20460;-70
2022/04/05 10:33:13;;;;;;;3.67;1.80;;;7.70;99.90;;;;;;5062285;28;20200;-68
2022/04/05 10:35:53;;;;;;;7.43;1.33;;;7.80;99.90;;;;;;5071621;28;20200;-71
2022/04/05 10:38:22;;;;;;;9.63;1.25;;;8.00;99.90;;;;;;5063451;28;20197;-71
2022/04/05 10:41:17;;;;;;;16.65;1.80;;;8.10;99.90;;;;;;5062674;28;20224;-69
2022/04/05 10:43:49;;;;;;;2.50;0.98;;;8.00;99.90;;;;;;5076245;28;20793;-69
2022/04/05 10:46:41;;;;;;;5.97;1.05;;;8.10;99.90;;;;;;5081864;28;20213;-69
2022/04/05 10:49:37;;;;;;;2.30;1.13;;;8.10;99.90;;;;;;5089070;22;20707;-70
2022/04/05 10:52:16;;;;;;;3.35;0.77;;;8.10;99.90;;;;;;5028943;28;20236;-72
2022/04/05 10:54:46;;;;;;;4.00;1.95;;;7.90;99.90;;;;;;5034098;28;20265;-71
2022/04/05 10:57:29;;;;;;;3.00;1.15;;;7.80;99.90;;;;;;5033692;28;20271;-72
2022/04/05 11:00:01;;;;;;;5.95;1.52;;;7.70;99.90;;;;;;5039443;28;20201;-72
2022/04/05 11:02:37;;;;;;;5.85;1.98;;;7.60;99.90;;;;;;5041570;28;20289;-72
2022/04/05 11:05:32;;;;;;;3.17;1.00;;;7.70;99.90;;;;;;5020568;28;20226;-72
2022/04/05 11:08:07;;;;;;;4.45;1.10;;;7.70;99.90;;;;;;5023630;28;20198;-72
2022/04/05 11:11:04;;;;;;;2.10;1.63;;;7.70;99.90;;;;;;5021678;28;20238;-76
2022/04/05 11:13:39;;;;;;;3.70;1.00;;;7.60;99.90;;;;;;5028039;28;20198;-73
2022/04/05 11:16:12;;;;;;;3.70;1.27;;;7.60;99.90;;;;;;5022307;28;20903;-75
2022/04/05 11:18:44;;;;;;;1.65;0.93;;;7.60;99.90;;;;;;5021247;28;20205;-77
2022/04/05 11:21:12;;;;;;;6.38;1.30;;;7.60;99.90;;;;;;5022073;28;20230;-77
2022/04/05 11:23:52;;;;;;;6.13;1.77;;;7.60;99.90;;;;;;5041381;28;20209;-77
2022/04/05 11:26:32;;;;;;;2.60;1.20;;;7.60;99.90;;;;;;5040957;28;20367;-80
2022/04/05 11:29:01;;;;;;;5.78;1.13;;;7.60;99.90;;;;;;5029053;28;20240;-81
2022/04/05 11:31:35;;;;;;;3.40;0.98;;;7.50;99.90;;;;;;5036316;28;20334;-81
2022/04/05 11:34:37;;;;;;;2.05;0.95;;;7.40;99.90;;;;;;5022461;28;20241;-73
2022/04/05 11:37:07;;;;;;;2.47;1.23;;;7.20;99.90;;;;;;5031897;28;20198;-77
2022/04/05 11:39:39;;;;;;;6.88;1.05;;;7.20;99.90;;;;;;5025287;28;20207;-76
2022/04/05 11:42:07;;;;;;;3.67;0.85;;;7.20;99.90;;;;;;5020397;28;20222;-76
2022/04/05 11:44:35;;;;;;;8.38;1.60;;;7.20;99.90;;;;;;5020164;28;20217;-76
2022/04/05 11:47:04;;;;;;;2.50;0.70;;;7.20;99.90;;;;;;5028557;28;20205;-78
2022/04/05 11:49:42;;;;;;;4.30;1.17;;;7.20;99.90;;;;;;5025985;28;20229;-78
2022/04/05 11:52:11;;;;;;;3.38;1.55;;;7.20;99.90;;;;;;5036711;28;20242;-76
2022/04/05 11:57:26;;;;;;;2.53;1.10;;;7.40;99.90;;;;;;5021579;28;20666;-77
2022/04/05 12:00:06;;;;;;;5.20;1.08;;;7.40;99.90;;;;;;5021050;28;20201;-79
2022/04/05 12:02:35;;;;;;;1.77;1.33;;;7.40;99.90;;;;;;5021714;28;20249;-79
2022/04/05 12:05:04;;;;;;;1.80;1.20;;;7.50;99.90;;;;;;5022075;28;20672;-79
2022/04/05 12:07:35;;;;;;;5.82;0.98;;;7.60;99.90;;;;;;5021434;28;20212;-80
2022/04/05 12:10:06;;;;;;;2.92;1.10;;;7.70;99.90;;;;;;5020516;28;20369;-80
2022/04/05 12:12:34;;;;;;;1.20;1.10;;;7.80;99.90;;;;;;5020466;28;20682;-79
2022/04/05 12:15:15;;;;;;;1.48;0.70;;;7.80;99.90;;;;;;5023682;28;20409;-78
2022/04/05 12:17:42;;;;;;;2.55;0.80;;;7.90;99.90;;;;;;5022117;28;20632;-75
2022/04/05 12:20:11;;;;;;;1.15;0.93;;;8.00;99.90;;;;;;5028165;28;20260;-74
2022/04/05 12:22:39;;;;;;;6.07;1.60;;;8.10;99.90;;;;;;5020574;28;20473;-75
2022/04/05 12:25:09;;;;;;;3.40;1.15;;;8.20;99.90;;;;;;5037565;28;20297;-75
2022/04/05 12:27:37;;;;;;;3.63;1.08;;;8.10;99.90;;;;;;5039727;28;20212;-75
2022/04/05 12:30:06;;;;;;;2.65;0.70;;;8.10;99.90;;;;;;5039871;28;20251;-75
2022/04/05 12:32:34;;;;;;;3.00;1.00;;;8.10;99.90;;;;;;5037006;28;20752;-75
2022/04/05 12:35:03;;;;;;;2.25;0.95;;;8.20;99.90;;;;;;5020274;28;20294;-75
2022/04/05 12:37:31;;;;;;;4.30;1.45;;;8.30;99.90;;;;;;5020381;28;20386;-75
2022/04/05 12:39:59;;;;;;;2.63;1.50;;;8.30;99.90;;;;;;5021182;28;20230;-77
2022/04/05 12:42:39;;;;;;;2.40;1.38;;;8.30;99.90;;;;;;5020315;28;20240;-78
2022/04/05 12:45:08;;;;;;;5.13;1.17;;;8.30;99.90;;;;;;5020917;28;20210;-78
2022/04/05 12:47:44;;;;;;;1.73;0.77;;;8.30;99.90;;;;;;5026048;28;20210;-77
2022/04/05 12:50:12;;;;;;;2.55;0.98;;;8.30;99.90;;;;;;5025909;28;20229;-78
2022/04/05 12:52:39;;;;;;;2.00;1.08;;;8.20;99.90;;;;;;5033129;28;20582;-75
2022/04/05 12:55:14;;;;;;;4.32;0.90;;;8.30;99.90;;;;;;5022431;28;20448;-75
2022/04/05 12:57:48;;;;;;;2.22;1.60;;;8.30;99.90;;;;;;5032247;28;20503;-75
2022/04/05 13:00:19;;;;;;;2.25;0.90;;;8.30;99.90;;;;;;5024965;28;20458;-75
2022/04/05 13:02:49;;;;;;;4.80;0.95;;;8.40;99.90;;;;;;5024501;28;20210;-73
2022/04/05 13:08:09;;;;;;;3.78;1.00;;;8.20;99.90;;;;;;5033618;28;20432;-73
2022/04/05 13:10:39;;;;;;;3.70;1.40;;;8.10;99.90;;;;;;5031895;28;20226;-72
2022/04/05 13:13:18;;;;;;;2.92;1.05;;;8.00;99.90;;;;;;5033230;28;20232;-74
2022/04/05 13:15:46;;;;;;;1.63;1.02;;;8.00;99.90;;;;;;5024351;28;20305;-77
2022/04/05 13:18:15;;;;;;;6.50;1.40;;;8.00;99.90;;;;;;5034290;28;20257;-75